sensor_id;sensor_type;location;lat;lon;timestamp;temperature;humidity
7163;DHT22;3623;47.098;15.446;2023-12-07T00:03:29;0.40;99.90
7163;DHT22;3623;47.098;15.446;2023-12-07T00:06:57;-0.30;99.90
7163;DHT22;3623;47.098;15.446;2023-12-07T00:16:50;-1.10;99.90
7163;DHT22;3623;47.098;15.446;2023-12-07T00:19:59;1.30;99.90
7163;DHT22;3623;47.098;15.446;2023-12-07T00:26:25;-1.50;99.90
7163;DHT22;3623;47.098;15.446;2023-12-07T00:32:57;-1.50;99.90
7163;DHT22;3623;47.098;15.446;2023-12-07T00:39:27;-1.80;99.90
7163;DHT22;3623;47.098;15.446;2023-12-07T00:42:46;0.20;99.90
7163;DHT22;3623;47.098;15.446;2023-12-07T00:45:52;-0.80;99.90
7163;DHT22;3623;47.098;15.446;2023-12-07T00:48:51;-1.30;99.90
7163;DHT22;3623;47.098;15.446;2023-12-07T00:54:50;-0.90;99.90
7163;DHT22;3623;47.098;15.446;2023-12-07T01:01:23;-1.00;99.90
7163;DHT22;3623;47.098;15.446;2023-12-07T01:04:47;-1.00;99.90
7163;DHT22;3623;47.098;15.446;2023-12-07T01:07:59;-0.90;99.90
7163;DHT22;3623;47.098;15.446;2023-12-07T01:13:55;-0.50;99.90
7163;DHT22;3623;47.098;15.446;2023-12-07T01:16:38;0.40;99.90
7163;DHT22;3623;47.098;15.446;2023-12-07T01:19:51;-2.00;99.90
7163;DHT22;3623;47.098;15.446;2023-12-07T01:22:54;-1.10;99.90
7163;DHT22;3623;47.098;15.446;2023-12-07T01:25:40;-0.90;99.90
7163;DHT22;3623;47.098;15.446;2023-12-07T01:28:32;-1.10;99.90
7163;DHT22;3623;47.098;15.446;2023-12-07T01:31:07;-1.30;99.90
7163;DHT22;3623;47.098;15.446;2023-12-07T01:33:51;-1.40;99.90
7163;DHT22;3623;47.098;15.446;2023-12-07T01:36:37;-1.60;99.90
7163;DHT22;3623;47.098;15.446;2023-12-07T01:40:04;-1.60;99.90
7163;DHT22;3623;47.098;15.446;2023-12-07T01:42:57;-1.50;99.90
7163;DHT22;3623;47.098;15.446;2023-12-07T01:45:35;-1.60;99.90
7163;DHT22;3623;47.098;15.446;2023-12-07T01:48:50;-1.60;99.90
7163;DHT22;3623;47.098;15.446;2023-12-07T01:51:34;-1.50;99.90
7163;DHT22;3623;47.098;15.446;2023-12-07T01:54:10;-1.50;99.90
7163;DHT22;3623;47.098;15.446;2023-12-07T01:56:54;-1.60;99.90
7163;DHT22;3623;47.098;15.446;2023-12-07T01:59:29;-1.20;99.90
7163;DHT22;3623;47.098;15.446;2023-12-07T02:02:09;-1.60;99.90
7163;DHT22;3623;47.098;15.446;2023-12-07T02:04:57;-1.60;99.90
7163;DHT22;3623;47.098;15.446;2023-12-07T02:07:35;-1.50;99.90
7163;DHT22;3623;47.098;15.446;2023-12-07T02:10:20;-1.40;99.90
7163;DHT22;3623;47.098;15.446;2023-12-07T02:16:43;-0.10;99.90
7163;DHT22;3623;47.098;15.446;2023-12-07T02:19:47;-1.50;99.90
7163;DHT22;3623;47.098;15.446;2023-12-07T02:26:20;-1.70;99.90
7163;DHT22;3623;47.098;15.446;2023-12-07T02:29:07;-1.50;99.90
7163;DHT22;3623;47.098;15.446;2023-12-07T02:31:50;-1.60;99.90
7163;DHT22;3623;47.098;15.446;2023-12-07T02:35:02;-1.50;99.90
7163;DHT22;3623;47.098;15.446;2023-12-07T02:38:06;-1.60;99.90
7163;DHT22;3623;47.098;15.446;2023-12-07T02:41:21;-1.60;99.90
7163;DHT22;3623;47.098;15.446;2023-12-07T02:47:44;-1.70;99.90
7163;DHT22;3623;47.098;15.446;2023-12-07T02:50:28;-0.50;99.90
7163;DHT22;3623;47.098;15.446;2023-12-07T02:53:34;-1.80;99.90
7163;DHT22;3623;47.098;15.446;2023-12-07T02:59:22;-1.60;99.90
7163;DHT22;3623;47.098;15.446;2023-12-07T03:05:13;-1.20;99.90
7163;DHT22;3623;47.098;15.446;2023-12-07T03:07:58;-2.30;99.90
7163;DHT22;3623;47.098;15.446;2023-12-07T03:10:51;-2.10;99.90
7163;DHT22;3623;47.098;15.446;2023-12-07T03:13:55;-1.60;99.90
7163;DHT22;3623;47.098;15.446;2023-12-07T03:17:03;0.20;99.90
7163;DHT22;3623;47.098;15.446;2023-12-07T03:19:54;-1.70;99.90
7163;DHT22;3623;47.098;15.446;2023-12-07T03:22:31;-3.00;99.90
7163;DHT22;3623;47.098;15.446;2023-12-07T03:25:10;-1.30;99.90
7163;DHT22;3623;47.098;15.446;2023-12-07T03:28:11;-1.30;99.90
7163;DHT22;3623;47.098;15.446;2023-12-07T03:30:47;1.00;99.90
7163;DHT22;3623;47.098;15.446;2023-12-07T03:33:35;-1.00;99.90
7163;DHT22;3623;47.098;15.446;2023-12-07T03:36:10;-1.00;99.90
7163;DHT22;3623;47.098;15.446;2023-12-07T03:38:46;-1.10;99.90
7163;DHT22;3623;47.098;15.446;2023-12-07T03:41:25;-1.10;99.90
7163;DHT22;3623;47.098;15.446;2023-12-07T03:44:24;-1.20;99.90
7163;DHT22;3623;47.098;15.446;2023-12-07T03:47:11;-2.20;99.90
7163;DHT22;3623;47.098;15.446;2023-12-07T03:50:04;-1.90;99.90
7163;DHT22;3623;47.098;15.446;2023-12-07T03:52:43;-1.40;99.90
7163;DHT22;3623;47.098;15.446;2023-12-07T03:55:37;0.10;99.90
7163;DHT22;3623;47.098;15.446;2023-12-07T03:58:29;-1.60;99.90
7163;DHT22;3623;47.098;15.446;2023-12-07T04:01:05;-1.60;99.90
7163;DHT22;3623;47.098;15.446;2023-12-07T04:03:40;-1.40;99.90
7163;DHT22;3623;47.098;15.446;2023-12-07T04:06:50;-1.40;99.90
7163;DHT22;3623;47.098;15.446;2023-12-07T04:09:31;-0.30;99.90
7163;DHT22;3623;47.098;15.446;2023-12-07T04:12:26;-1.00;99.90
7163;DHT22;3623;47.098;15.446;2023-12-07T04:15:03;-0.80;99.90
7163;DHT22;3623;47.098;15.446;2023-12-07T04:17:44;-0.90;99.90
7163;DHT22;3623;47.098;15.446;2023-12-07T04:20:15;-1.10;99.90
7163;DHT22;3623;47.098;15.446;2023-12-07T04:23:01;-1.10;99.90
7163;DHT22;3623;47.098;15.446;2023-12-07T04:25:32;-1.10;99.90
7163;DHT22;3623;47.098;15.446;2023-12-07T04:28:00;-1.40;99.90
7163;DHT22;3623;47.098;15.446;2023-12-07T04:33:20;-1.10;99.90
7163;DHT22;3623;47.098;15.446;2023-12-07T04:35:58;-0.20;99.90
7163;DHT22;3623;47.098;15.446;2023-12-07T04:38:55;-1.80;99.90
7163;DHT22;3623;47.098;15.446;2023-12-07T04:41:29;-0.70;99.90
7163;DHT22;3623;47.098;15.446;2023-12-07T04:46:01;-0.70;99.90
7163;DHT22;3623;47.098;15.446;2023-12-07T04:47:36;-1.00;99.90
7163;DHT22;3623;47.098;15.446;2023-12-07T04:50:31;-2.60;99.90
7163;DHT22;3623;47.098;15.446;2023-12-07T04:53:24;-1.20;99.90
7163;DHT22;3623;47.098;15.446;2023-12-07T04:56:23;-1.00;99.90
7163;DHT22;3623;47.098;15.446;2023-12-07T04:59:20;-1.10;99.90
7163;DHT22;3623;47.098;15.446;2023-12-07T05:02:12;-1.20;99.90
7163;DHT22;3623;47.098;15.446;2023-12-07T05:05:06;-1.30;99.90
7163;DHT22;3623;47.098;15.446;2023-12-07T05:11:14;-1.00;99.90
7163;DHT22;3623;47.098;15.446;2023-12-07T05:14:06;-1.10;99.90
7163;DHT22;3623;47.098;15.446;2023-12-07T05:16:43;-1.20;99.90
7163;DHT22;3623;47.098;15.446;2023-12-07T05:19:19;-1.30;99.90
7163;DHT22;3623;47.098;15.446;2023-12-07T05:22:14;-1.20;99.90
7163;DHT22;3623;47.098;15.446;2023-12-07T05:24:42;-1.30;99.90
7163;DHT22;3623;47.098;15.446;2023-12-07T05:27:13;-1.30;99.90
7163;DHT22;3623;47.098;15.446;2023-12-07T05:29:51;-1.30;99.90
7163;DHT22;3623;47.098;15.446;2023-12-07T05:32:22;-1.30;99.90
7163;DHT22;3623;47.098;15.446;2023-12-07T05:34:59;0.70;99.90
7163;DHT22;3623;47.098;15.446;2023-12-07T05:37:29;-1.30;99.90
7163;DHT22;3623;47.098;15.446;2023-12-07T05:40:05;-1.40;99.90
7163;DHT22;3623;47.098;15.446;2023-12-07T05:42:38;-1.30;99.90
7163;DHT22;3623;47.098;15.446;2023-12-07T05:45:09;-1.10;99.90
7163;DHT22;3623;47.098;15.446;2023-12-07T05:47:43;-1.10;99.90
7163;DHT22;3623;47.098;15.446;2023-12-07T05:50:19;-1.20;99.90
7163;DHT22;3623;47.098;15.446;2023-12-07T05:52:47;-1.40;99.90
7163;DHT22;3623;47.098;15.446;2023-12-07T05:55:18;-2.00;99.90
7163;DHT22;3623;47.098;15.446;2023-12-07T05:57:56;-1.10;99.90
7163;DHT22;3623;47.098;15.446;2023-12-07T06:00:41;-1.10;99.90
7163;DHT22;3623;47.098;15.446;2023-12-07T06:03:14;-1.10;99.90
7163;DHT22;3623;47.098;15.446;2023-12-07T06:05:44;-1.00;99.90
7163;DHT22;3623;47.098;15.446;2023-12-07T06:08:15;-0.90;99.90
7163;DHT22;3623;47.098;15.446;2023-12-07T06:10:44;-1.10;99.90
7163;DHT22;3623;47.098;15.446;2023-12-07T06:13:13;-1.20;99.90
7163;DHT22;3623;47.098;15.446;2023-12-07T06:15:41;-0.80;99.90
7163;DHT22;3623;47.098;15.446;2023-12-07T06:18:12;0.30;99.90
7163;DHT22;3623;47.098;15.446;2023-12-07T06:20:43;-0.90;99.90
7163;DHT22;3623;47.098;15.446;2023-12-07T06:23:12;-1.10;99.90
7163;DHT22;3623;47.098;15.446;2023-12-07T06:25:40;-1.10;99.90
7163;DHT22;3623;47.098;15.446;2023-12-07T06:28:15;-1.00;99.90
7163;DHT22;3623;47.098;15.446;2023-12-07T06:30:46;-1.00;99.90
7163;DHT22;3623;47.098;15.446;2023-12-07T06:33:18;-0.80;99.90
7163;DHT22;3623;47.098;15.446;2023-12-07T06:35:46;-2.40;99.90
7163;DHT22;3623;47.098;15.446;2023-12-07T06:38:18;-0.80;99.90
7163;DHT22;3623;47.098;15.446;2023-12-07T06:40:49;-0.80;99.90
7163;DHT22;3623;47.098;15.446;2023-12-07T06:43:25;-0.80;99.90
7163;DHT22;3623;47.098;15.446;2023-12-07T06:45:54;-1.20;99.90
7163;DHT22;3623;47.098;15.446;2023-12-07T06:48:22;-1.00;99.90
7163;DHT22;3623;47.098;15.446;2023-12-07T06:50:53;-0.90;99.90
7163;DHT22;3623;47.098;15.446;2023-12-07T06:53:23;-0.80;99.90
7163;DHT22;3623;47.098;15.446;2023-12-07T06:55:53;0.70;99.90
7163;DHT22;3623;47.098;15.446;2023-12-07T06:58:22;-1.40;99.90
7163;DHT22;3623;47.098;15.446;2023-12-07T07:00:56;-0.90;99.90
7163;DHT22;3623;47.098;15.446;2023-12-07T07:03:25;-0.80;99.90
7163;DHT22;3623;47.098;15.446;2023-12-07T07:06:01;-0.70;99.90
7163;DHT22;3623;47.098;15.446;2023-12-07T07:08:33;-0.70;99.90
7163;DHT22;3623;47.098;15.446;2023-12-07T07:11:13;-0.90;99.90
7163;DHT22;3623;47.098;15.446;2023-12-07T07:13:45;-0.10;99.90
7163;DHT22;3623;47.098;15.446;2023-12-07T07:16:13;-0.60;99.90
7163;DHT22;3623;47.098;15.446;2023-12-07T07:18:44;-0.60;99.90
7163;DHT22;3623;47.098;15.446;2023-12-07T07:21:18;-0.60;99.90
7163;DHT22;3623;47.098;15.446;2023-12-07T07:23:54;-1.70;99.90
7163;DHT22;3623;47.098;15.446;2023-12-07T07:26:32;-0.60;99.90
7163;DHT22;3623;47.098;15.446;2023-12-07T07:29:08;-0.30;99.90
7163;DHT22;3623;47.098;15.446;2023-12-07T07:31:44;-0.70;99.90
7163;DHT22;3623;47.098;15.446;2023-12-07T07:34:16;-0.60;99.90
7163;DHT22;3623;47.098;15.446;2023-12-07T07:36:54;-0.60;99.90
7163;DHT22;3623;47.098;15.446;2023-12-07T07:39:27;0.00;99.90
7163;DHT22;3623;47.098;15.446;2023-12-07T07:41:55;0.00;99.90
7163;DHT22;3623;47.098;15.446;2023-12-07T07:44:27;-0.30;99.90
7163;DHT22;3623;47.098;15.446;2023-12-07T07:46:59;-0.60;99.90
7163;DHT22;3623;47.098;15.446;2023-12-07T07:49:36;-0.50;99.90
7163;DHT22;3623;47.098;15.446;2023-12-07T07:52:13;-0.60;99.90
7163;DHT22;3623;47.098;15.446;2023-12-07T07:54:59;-0.10;99.90
7163;DHT22;3623;47.098;15.446;2023-12-07T07:58:03;-0.50;99.90
7163;DHT22;3623;47.098;15.446;2023-12-07T08:03:39;0.60;99.90
7163;DHT22;3623;47.098;15.446;2023-12-07T08:06:09;-0.30;99.90
7163;DHT22;3623;47.098;15.446;2023-12-07T08:08:58;-0.10;99.90
7163;DHT22;3623;47.098;15.446;2023-12-07T08:12:02;0.00;99.90
7163;DHT22;3623;47.098;15.446;2023-12-07T08:14:46;0.10;99.90
7163;DHT22;3623;47.098;15.446;2023-12-07T08:17:22;0.10;99.90
7163;DHT22;3623;47.098;15.446;2023-12-07T08:20:19;0.30;99.90
7163;DHT22;3623;47.098;15.446;2023-12-07T08:23:10;0.40;99.90
7163;DHT22;3623;47.098;15.446;2023-12-07T08:26:20;0.50;99.90
7163;DHT22;3623;47.098;15.446;2023-12-07T08:29:04;0.70;99.90
7163;DHT22;3623;47.098;15.446;2023-12-07T08:31:36;0.90;99.90
7163;DHT22;3623;47.098;15.446;2023-12-07T08:34:14;1.10;99.90
7163;DHT22;3623;47.098;15.446;2023-12-07T08:36:50;1.60;99.90
7163;DHT22;3623;47.098;15.446;2023-12-07T08:39:23;2.50;99.90
7163;DHT22;3623;47.098;15.446;2023-12-07T08:41:59;1.60;99.90
7163;DHT22;3623;47.098;15.446;2023-12-07T08:44:34;1.70;99.90
7163;DHT22;3623;47.098;15.446;2023-12-07T08:47:09;1.50;99.90
7163;DHT22;3623;47.098;15.446;2023-12-07T08:49:56;1.60;99.90
7163;DHT22;3623;47.098;15.446;2023-12-07T08:52:35;1.70;99.90
7163;DHT22;3623;47.098;15.446;2023-12-07T08:55:31;1.80;99.90
7163;DHT22;3623;47.098;15.446;2023-12-07T08:58:18;2.80;99.90
7163;DHT22;3623;47.098;15.446;2023-12-07T09:01:36;1.90;99.90
7163;DHT22;3623;47.098;15.446;2023-12-07T09:12:22;2.90;99.90
7163;DHT22;3623;47.098;15.446;2023-12-07T09:15:33;3.00;99.90
7163;DHT22;3623;47.098;15.446;2023-12-07T09:18:39;2.30;99.90
7163;DHT22;3623;47.098;15.446;2023-12-07T09:21:51;3.70;99.90
7163;DHT22;3623;47.098;15.446;2023-12-07T09:24:28;3.00;99.90
7163;DHT22;3623;47.098;15.446;2023-12-07T09:30:19;3.40;99.90
7163;DHT22;3623;47.098;15.446;2023-12-07T09:32:52;2.80;99.90
7163;DHT22;3623;47.098;15.446;2023-12-07T09:35:30;2.90;99.90
7163;DHT22;3623;47.098;15.446;2023-12-07T09:38:02;2.90;99.90
7163;DHT22;3623;47.098;15.446;2023-12-07T09:40:33;2.80;99.90
7163;DHT22;3623;47.098;15.446;2023-12-07T09:43:15;3.00;99.90
7163;DHT22;3623;47.098;15.446;2023-12-07T09:45:58;2.30;99.90
7163;DHT22;3623;47.098;15.446;2023-12-07T09:48:42;3.00;99.90
7163;DHT22;3623;47.098;15.446;2023-12-07T09:51:18;3.10;99.90
7163;DHT22;3623;47.098;15.446;2023-12-07T09:54:03;3.10;99.90
7163;DHT22;3623;47.098;15.446;2023-12-07T09:56:36;3.20;99.90
7163;DHT22;3623;47.098;15.446;2023-12-07T09:59:15;3.40;99.90
7163;DHT22;3623;47.098;15.446;2023-12-07T10:04:43;5.10;99.90
7163;DHT22;3623;47.098;15.446;2023-12-07T10:07:11;4.10;99.90
7163;DHT22;3623;47.098;15.446;2023-12-07T10:09:48;2.80;99.90
7163;DHT22;3623;47.098;15.446;2023-12-07T10:13:05;6.00;99.90
7163;DHT22;3623;47.098;15.446;2023-12-07T10:15:37;6.50;99.90
7163;DHT22;3623;47.098;15.446;2023-12-07T10:18:12;4.90;99.90
7163;DHT22;3623;47.098;15.446;2023-12-07T10:20:45;4.90;99.90
7163;DHT22;3623;47.098;15.446;2023-12-07T10:23:16;5.80;99.90
7163;DHT22;3623;47.098;15.446;2023-12-07T10:25:53;4.90;99.90
7163;DHT22;3623;47.098;15.446;2023-12-07T10:28:22;4.90;99.90
7163;DHT22;3623;47.098;15.446;2023-12-07T10:30:54;4.80;99.90
7163;DHT22;3623;47.098;15.446;2023-12-07T10:33:26;6.10;99.90
7163;DHT22;3623;47.098;15.446;2023-12-07T10:35:57;5.20;99.90
7163;DHT22;3623;47.098;15.446;2023-12-07T10:38:29;6.00;99.90
7163;DHT22;3623;47.098;15.446;2023-12-07T10:41:04;4.50;99.90
7163;DHT22;3623;47.098;15.446;2023-12-07T10:43:46;6.80;99.90
7163;DHT22;3623;47.098;15.446;2023-12-07T10:46:15;7.40;99.90
7163;DHT22;3623;47.098;15.446;2023-12-07T10:49:08;7.70;99.90
7163;DHT22;3623;47.098;15.446;2023-12-07T10:51:44;8.00;99.90
7163;DHT22;3623;47.098;15.446;2023-12-07T10:54:18;8.20;99.90
7163;DHT22;3623;47.098;15.446;2023-12-07T10:56:46;8.10;99.90
7163;DHT22;3623;47.098;15.446;2023-12-07T10:59:16;8.70;99.90
7163;DHT22;3623;47.098;15.446;2023-12-07T11:01:52;9.60;99.90
7163;DHT22;3623;47.098;15.446;2023-12-07T11:04:22;8.90;99.90
7163;DHT22;3623;47.098;15.446;2023-12-07T11:07:01;10.20;99.90
7163;DHT22;3623;47.098;15.446;2023-12-07T11:09:45;9.40;99.90
7163;DHT22;3623;47.098;15.446;2023-12-07T11:12:32;9.70;99.90
7163;DHT22;3623;47.098;15.446;2023-12-07T11:15:02;10.10;99.90
7163;DHT22;3623;47.098;15.446;2023-12-07T11:18:05;10.40;99.90
7163;DHT22;3623;47.098;15.446;2023-12-07T11:20:55;9.50;99.90
7163;DHT22;3623;47.098;15.446;2023-12-07T11:23:31;10.40;99.90
7163;DHT22;3623;47.098;15.446;2023-12-07T11:26:04;9.40;99.90
7163;DHT22;3623;47.098;15.446;2023-12-07T11:28:40;10.30;99.90
7163;DHT22;3623;47.098;15.446;2023-12-07T11:31:10;11.00;99.90
7163;DHT22;3623;47.098;15.446;2023-12-07T11:33:53;11.60;99.90
7163;DHT22;3623;47.098;15.446;2023-12-07T11:36:37;10.40;99.90
7163;DHT22;3623;47.098;15.446;2023-12-07T11:39:16;11.80;97.90
7163;DHT22;3623;47.098;15.446;2023-12-07T11:42:12;12.10;99.90
7163;DHT22;3623;47.098;15.446;2023-12-07T11:44:47;13.30;99.90
7163;DHT22;3623;47.098;15.446;2023-12-07T11:47:31;12.60;99.50
7163;DHT22;3623;47.098;15.446;2023-12-07T11:50:17;13.10;96.10
7163;DHT22;3623;47.098;15.446;2023-12-07T11:52:46;12.30;99.90
7163;DHT22;3623;47.098;15.446;2023-12-07T11:55:19;12.60;99.90
7163;DHT22;3623;47.098;15.446;2023-12-07T11:58:03;11.80;96.00
7163;DHT22;3623;47.098;15.446;2023-12-07T12:00:35;11.70;95.60
7163;DHT22;3623;47.098;15.446;2023-12-07T12:03:06;11.30;95.20
7163;DHT22;3623;47.098;15.446;2023-12-07T12:05:36;11.70;95.40
7163;DHT22;3623;47.098;15.446;2023-12-07T12:08:07;12.10;94.10
7163;DHT22;3623;47.098;15.446;2023-12-07T12:10:40;12.30;94.30
7163;DHT22;3623;47.098;15.446;2023-12-07T12:13:25;13.30;94.40
7163;DHT22;3623;47.098;15.446;2023-12-07T12:16:07;12.90;93.00
7163;DHT22;3623;47.098;15.446;2023-12-07T12:18:37;12.90;91.30
7163;DHT22;3623;47.098;15.446;2023-12-07T12:21:07;13.00;93.00
7163;DHT22;3623;47.098;15.446;2023-12-07T12:23:52;12.50;92.90
7163;DHT22;3623;47.098;15.446;2023-12-07T12:26:25;11.80;91.30
7163;DHT22;3623;47.098;15.446;2023-12-07T12:28:54;14.20;92.80
7163;DHT22;3623;47.098;15.446;2023-12-07T12:31:26;12.10;90.50
7163;DHT22;3623;47.098;15.446;2023-12-07T12:33:54;10.80;92.30
7163;DHT22;3623;47.098;15.446;2023-12-07T12:36:29;9.50;93.60
7163;DHT22;3623;47.098;15.446;2023-12-07T12:39:03;9.10;92.20
7163;DHT22;3623;47.098;15.446;2023-12-07T12:41:35;8.60;93.50
7163;DHT22;3623;47.098;15.446;2023-12-07T12:44:07;8.40;94.70
7163;DHT22;3623;47.098;15.446;2023-12-07T12:46:39;7.50;95.20
7163;DHT22;3623;47.098;15.446;2023-12-07T12:49:09;7.30;95.40
7163;DHT22;3623;47.098;15.446;2023-12-07T12:51:41;7.70;95.40
7163;DHT22;3623;47.098;15.446;2023-12-07T12:54:10;7.90;94.10
7163;DHT22;3623;47.098;15.446;2023-12-07T12:56:43;7.70;94.20
7163;DHT22;3623;47.098;15.446;2023-12-07T12:59:14;9.30;95.40
7163;DHT22;3623;47.098;15.446;2023-12-07T13:01:45;8.60;95.90
7163;DHT22;3623;47.098;15.446;2023-12-07T13:04:12;7.20;94.60
7163;DHT22;3623;47.098;15.446;2023-12-07T13:06:40;7.00;95.60
7163;DHT22;3623;47.098;15.446;2023-12-07T13:09:09;7.60;94.60
7163;DHT22;3623;47.098;15.446;2023-12-07T13:11:42;7.60;94.20
7163;DHT22;3623;47.098;15.446;2023-12-07T13:14:33;7.70;94.70
7163;DHT22;3623;47.098;15.446;2023-12-07T13:17:10;7.20;94.30
7163;DHT22;3623;47.098;15.446;2023-12-07T13:19:50;7.80;93.60
7163;DHT22;3623;47.098;15.446;2023-12-07T13:22:23;7.60;93.90
7163;DHT22;3623;47.098;15.446;2023-12-07T13:24:54;6.30;93.60
7163;DHT22;3623;47.098;15.446;2023-12-07T13:27:30;7.20;94.80
7163;DHT22;3623;47.098;15.446;2023-12-07T13:30:01;6.90;95.00
7163;DHT22;3623;47.098;15.446;2023-12-07T13:32:31;6.00;95.60
7163;DHT22;3623;47.098;15.446;2023-12-07T13:35:06;5.90;97.00
7163;DHT22;3623;47.098;15.446;2023-12-07T13:37:36;5.60;95.50
7163;DHT22;3623;47.098;15.446;2023-12-07T13:40:23;5.40;96.00
7163;DHT22;3623;47.098;15.446;2023-12-07T13:42:53;5.40;96.80
7163;DHT22;3623;47.098;15.446;2023-12-07T13:45:35;5.20;96.50
7163;DHT22;3623;47.098;15.446;2023-12-07T13:48:15;4.40;96.80
7163;DHT22;3623;47.098;15.446;2023-12-07T13:50:43;5.00;97.10
7163;DHT22;3623;47.098;15.446;2023-12-07T13:53:14;5.10;99.30
7163;DHT22;3623;47.098;15.446;2023-12-07T13:55:48;4.70;97.30
7163;DHT22;3623;47.098;15.446;2023-12-07T13:58:26;4.60;97.60
7163;DHT22;3623;47.098;15.446;2023-12-07T14:01:02;4.50;97.60
7163;DHT22;3623;47.098;15.446;2023-12-07T14:03:32;4.50;97.70
7163;DHT22;3623;47.098;15.446;2023-12-07T14:06:00;4.60;98.30
7163;DHT22;3623;47.098;15.446;2023-12-07T14:08:31;4.10;97.50
7163;DHT22;3623;47.098;15.446;2023-12-07T14:11:03;4.40;97.60
7163;DHT22;3623;47.098;15.446;2023-12-07T14:13:35;4.30;97.70
7163;DHT22;3623;47.098;15.446;2023-12-07T14:16:12;4.30;97.40
7163;DHT22;3623;47.098;15.446;2023-12-07T14:18:42;3.80;97.40
7163;DHT22;3623;47.098;15.446;2023-12-07T14:21:26;4.30;97.50
7163;DHT22;3623;47.098;15.446;2023-12-07T14:24:10;4.20;98.30
7163;DHT22;3623;47.098;15.446;2023-12-07T14:26:42;4.00;97.90
7163;DHT22;3623;47.098;15.446;2023-12-07T14:29:18;5.40;99.10
7163;DHT22;3623;47.098;15.446;2023-12-07T14:31:49;4.30;99.40
7163;DHT22;3623;47.098;15.446;2023-12-07T14:34:19;4.10;99.20
7163;DHT22;3623;47.098;15.446;2023-12-07T14:36:46;3.80;99.90
7163;DHT22;3623;47.098;15.446;2023-12-07T14:39:14;3.40;99.40
7163;DHT22;3623;47.098;15.446;2023-12-07T14:41:48;3.60;99.50
7163;DHT22;3623;47.098;15.446;2023-12-07T14:44:17;3.60;99.90
7163;DHT22;3623;47.098;15.446;2023-12-07T14:46:49;3.50;99.50
7163;DHT22;3623;47.098;15.446;2023-12-07T14:49:17;3.70;99.90
7163;DHT22;3623;47.098;15.446;2023-12-07T14:51:47;3.50;99.70
7163;DHT22;3623;47.098;15.446;2023-12-07T14:54:22;3.50;99.90
7163;DHT22;3623;47.098;15.446;2023-12-07T14:56:54;3.60;99.90
7163;DHT22;3623;47.098;15.446;2023-12-07T14:59:30;4.00;99.90
7163;DHT22;3623;47.098;15.446;2023-12-07T15:02:02;3.00;99.80
7163;DHT22;3623;47.098;15.446;2023-12-07T15:04:37;3.10;99.80
7163;DHT22;3623;47.098;15.446;2023-12-07T15:07:10;3.10;99.90
7163;DHT22;3623;47.098;15.446;2023-12-07T15:09:47;3.00;99.90
7163;DHT22;3623;47.098;15.446;2023-12-07T15:12:28;2.80;99.90
7163;DHT22;3623;47.098;15.446;2023-12-07T15:15:20;3.00;99.90
7163;DHT22;3623;47.098;15.446;2023-12-07T15:18:10;2.00;99.90
7163;DHT22;3623;47.098;15.446;2023-12-07T15:20:51;1.50;99.90
7163;DHT22;3623;47.098;15.446;2023-12-07T15:23:32;2.60;99.90
7163;DHT22;3623;47.098;15.446;2023-12-07T15:26:09;2.60;99.90
7163;DHT22;3623;47.098;15.446;2023-12-07T15:28:55;2.50;99.90
7163;DHT22;3623;47.098;15.446;2023-12-07T15:31:35;2.30;99.90
7163;DHT22;3623;47.098;15.446;2023-12-07T15:34:18;1.40;99.90
7163;DHT22;3623;47.098;15.446;2023-12-07T15:36:56;3.20;99.90
7163;DHT22;3623;47.098;15.446;2023-12-07T15:39:27;3.60;99.90
7163;DHT22;3623;47.098;15.446;2023-12-07T15:41:56;2.30;99.90
7163;DHT22;3623;47.098;15.446;2023-12-07T15:44:30;2.60;99.90
7163;DHT22;3623;47.098;15.446;2023-12-07T15:47:21;2.10;99.90
7163;DHT22;3623;47.098;15.446;2023-12-07T15:50:01;2.10;99.90
7163;DHT22;3623;47.098;15.446;2023-12-07T15:52:33;2.80;99.90
7163;DHT22;3623;47.098;15.446;2023-12-07T15:55:04;1.80;99.90
7163;DHT22;3623;47.098;15.446;2023-12-07T15:57:36;1.80;99.90
7163;DHT22;3623;47.098;15.446;2023-12-07T16:00:18;1.50;99.90
7163;DHT22;3623;47.098;15.446;2023-12-07T16:02:59;1.20;99.90
7163;DHT22;3623;47.098;15.446;2023-12-07T16:05:30;1.60;99.90
7163;DHT22;3623;47.098;15.446;2023-12-07T16:11:23;1.20;99.90
7163;DHT22;3623;47.098;15.446;2023-12-07T16:14:15;2.60;99.90
7163;DHT22;3623;47.098;15.446;2023-12-07T16:17:29;2.40;99.90
7163;DHT22;3623;47.098;15.446;2023-12-07T16:20:17;1.60;99.90
7163;DHT22;3623;47.098;15.446;2023-12-07T16:25:57;2.30;99.90
7163;DHT22;3623;47.098;15.446;2023-12-07T16:28:34;1.70;99.90
7163;DHT22;3623;47.098;15.446;2023-12-07T16:31:29;1.90;99.90
7163;DHT22;3623;47.098;15.446;2023-12-07T16:34:10;0.90;99.90
7163;DHT22;3623;47.098;15.446;2023-12-07T16:36:38;1.80;99.90
7163;DHT22;3623;47.098;15.446;2023-12-07T16:39:13;0.80;99.90
7163;DHT22;3623;47.098;15.446;2023-12-07T16:41:44;2.60;99.90
7163;DHT22;3623;47.098;15.446;2023-12-07T16:44:17;1.80;99.90
7163;DHT22;3623;47.098;15.446;2023-12-07T16:46:55;1.60;99.90
7163;DHT22;3623;47.098;15.446;2023-12-07T16:49:24;1.70;99.90
7163;DHT22;3623;47.098;15.446;2023-12-07T16:51:54;1.70;99.90
7163;DHT22;3623;47.098;15.446;2023-12-07T16:54:28;1.30;99.90
7163;DHT22;3623;47.098;15.446;2023-12-07T16:56:58;1.50;99.90
7163;DHT22;3623;47.098;15.446;2023-12-07T16:59:35;1.40;99.90
7163;DHT22;3623;47.098;15.446;2023-12-07T17:02:14;1.30;99.90
7163;DHT22;3623;47.098;15.446;2023-12-07T17:04:58;1.20;99.90
7163;DHT22;3623;47.098;15.446;2023-12-07T17:07:32;1.20;99.90
7163;DHT22;3623;47.098;15.446;2023-12-07T17:10:17;1.20;99.90
7163;DHT22;3623;47.098;15.446;2023-12-07T17:12:53;1.20;99.90
7163;DHT22;3623;47.098;15.446;2023-12-07T17:15:29;0.50;99.90
7163;DHT22;3623;47.098;15.446;2023-12-07T17:18:04;1.50;99.90
7163;DHT22;3623;47.098;15.446;2023-12-07T17:20:53;0.60;99.90
7163;DHT22;3623;47.098;15.446;2023-12-07T17:23:44;1.20;99.90
7163;DHT22;3623;47.098;15.446;2023-12-07T17:26:27;2.20;99.90
7163;DHT22;3623;47.098;15.446;2023-12-07T17:29:13;1.30;99.90
7163;DHT22;3623;47.098;15.446;2023-12-07T17:31:49;0.40;99.90
7163;DHT22;3623;47.098;15.446;2023-12-07T17:34:18;0.30;99.90
7163;DHT22;3623;47.098;15.446;2023-12-07T17:36:47;0.10;99.90
7163;DHT22;3623;47.098;15.446;2023-12-07T17:39:24;0.00;99.90
7163;DHT22;3623;47.098;15.446;2023-12-07T17:41:51;0.70;99.90
7163;DHT22;3623;47.098;15.446;2023-12-07T17:44:20;-0.10;99.90
7163;DHT22;3623;47.098;15.446;2023-12-07T17:47:11;-1.90;99.90
7163;DHT22;3623;47.098;15.446;2023-12-07T17:49:49;0.00;99.90
7163;DHT22;3623;47.098;15.446;2023-12-07T17:52:21;1.00;99.90
7163;DHT22;3623;47.098;15.446;2023-12-07T17:55:01;-0.10;99.90
7163;DHT22;3623;47.098;15.446;2023-12-07T17:57:35;0.10;99.90
7163;DHT22;3623;47.098;15.446;2023-12-07T18:00:04;-0.50;99.90
7163;DHT22;3623;47.098;15.446;2023-12-07T18:02:34;-0.30;99.90
7163;DHT22;3623;47.098;15.446;2023-12-07T18:05:07;-0.50;99.90
7163;DHT22;3623;47.098;15.446;2023-12-07T18:07:46;-0.40;99.90
7163;DHT22;3623;47.098;15.446;2023-12-07T18:10:20;-0.40;99.90
7163;DHT22;3623;47.098;15.446;2023-12-07T18:12:57;-0.40;99.90
7163;DHT22;3623;47.098;15.446;2023-12-07T18:15:27;-0.20;99.90
7163;DHT22;3623;47.098;15.446;2023-12-07T18:18:06;-0.40;99.90
7163;DHT22;3623;47.098;15.446;2023-12-07T18:20:35;-0.40;99.90
7163;DHT22;3623;47.098;15.446;2023-12-07T18:23:14;-0.40;99.90
7163;DHT22;3623;47.098;15.446;2023-12-07T18:25:56;0.00;99.90
7163;DHT22;3623;47.098;15.446;2023-12-07T18:31:18;-0.40;99.90
7163;DHT22;3623;47.098;15.446;2023-12-07T18:34:06;0.30;99.90
7163;DHT22;3623;47.098;15.446;2023-12-07T18:36:37;-0.60;99.90